Time;durP1;ratioP1;P1;durP2;ratioP2;P2;SDS_P1;SDS_P2;PMS_P1;PMS_P2;Temp;Humidity;BMP_temperature;BMP_pressure;BME280_temperature;BME280_humidity;BME280_pressure;Samples;Min_cycle;Max_cycle;Signal;HPM_P1;HPM_P2
2022/05/30 00:01:30;;;;;;;;;1.67;1.67;;;;;13.09;55.94;100527.44;4767971;29;45437;-86
2022/05/30 00:07:34;;;;;;;;;3.00;2.33;;;;;13.13;56.73;100540.81;4799541;29;44950;-87
2022/05/30 00:10:09;;;;;;;;;2.67;2.67;;;;;13.10;57.03;100535.47;4784062;29;47126;-87
2022/05/30 00:13:06;;;;;;;;;1.00;1.00;;;;;13.29;58.01;100565.78;4799014;29;44895;-86
2022/05/30 00:15:40;;;;;;;;;3.00;3.00;;;;;13.01;57.02;100517.69;4798555;29;45920;-86
2022/05/30 00:22:05;;;;;;;;;4.00;3.00;;;;;13.26;57.41;100560.41;4685007;30;45657;-89
2022/05/30 00:25:20;;;;;;;;;2.00;2.00;;;;;13.12;57.15;100539.03;4689236;30;45567;-87
2022/05/30 00:28:09;;;;;;;;;3.00;3.00;;;;;13.09;57.93;100532.78;4714854;29;45323;-87
2022/05/30 00:38:57;;;;;;;;;4.33;2.00;;;;;12.93;58.75;100516.78;4757229;29;45392;-86
2022/05/30 00:42:33;;;;;;;;;4.00;2.00;;;;;12.85;59.06;100501.66;4761147;29;45625;-87
2022/05/30 00:45:52;;;;;;;;;3.67;3.00;;;;;13.04;61.12;100540.81;4744275;30;45568;-87
2022/05/30 01:07:35;;;;;;;;;2.00;2.00;;;;;12.61;60.86;100474.06;4605006;30;46075;-87
2022/05/30 01:10:55;;;;;;;;;;;;;;;;;;;;;
2022/05/30 01:14:30;;;;;;;;;3.00;3.00;;;;;12.61;60.44;100466.06;4573978;31;74396;-87
2022/05/30 01:21:19;;;;;;;;;;;;;;;;;;;;;
2022/05/30 01:25:03;;;;;;;;;;;;;;;;;;;;;
2022/05/30 01:28:40;;;;;;;;;4.00;4.00;;;;;12.66;61.06;100492.72;4682236;30;75730;-87
2022/05/30 01:31:45;;;;;;;;;4.00;4.00;;;;;12.53;62.16;100474.03;4683880;30;45394;-87
2022/05/30 01:34:34;;;;;;;;;2.00;2.00;;;;;12.60;63.40;100497.19;4658514;30;46056;-87
2022/05/30 01:37:45;;;;;;;;;3.33;3.33;;;;;12.45;61.98;100473.13;4673649;30;45552;-86
2022/05/30 01:41:11;;;;;;;;;2.67;2.67;;;;;12.31;61.77;100456.22;4674541;30;46314;-87
2022/05/30 01:44:10;;;;;;;;;3.33;2.00;;;;;12.66;62.35;100512.28;4642374;30;45475;-87
2022/05/30 02:00:46;;;;;;;;;3.33;3.00;;;;;12.64;62.19;100513.19;4671114;30;45541;-86
2022/05/30 02:03:51;;;;;;;;;;;;;;;;;;;;;
2022/05/30 02:09:56;;;;;;;;;3.67;3.67;;;;;12.59;62.33;100506.06;4669244;30;45748;-87
2022/05/30 02:20:06;;;;;;;;;3.67;3.67;;;;;12.51;64.17;100502.47;4542452;31;45896;-86
2022/05/30 02:23:36;;;;;;;;;;;;;;;;;;;;;
2022/05/30 02:37:39;;;;;;;;;5.00;4.00;;;;;12.24;66.22;100503.31;4725149;30;44787;-86
2022/05/30 02:43:57;;;;;;;;;6.33;6.33;;;;;12.17;66.20;100505.03;4702150;30;45605;-85
2022/05/30 02:49:54;;;;;;;;;5.00;5.00;;;;;12.03;66.68;100485.44;4691292;30;45463;-86
2022/05/30 03:06:30;;;;;;;;;7.00;5.33;;;;;12.11;66.22;100494.34;4610570;30;45482;-87
2022/05/30 03:13:08;;;;;;;;;4.00;4.00;;;;;12.08;66.13;100509.44;4588707;30;45713;-86
2022/05/30 03:19:25;;;;;;;;;4.00;4.00;;;;;12.07;66.29;100505.91;4602864;30;46629;-88
2022/05/30 03:22:41;;;;;;;;;;;;;;;;;;;;;
2022/05/30 03:25:42;;;;;;;;;4.67;3.00;;;;;11.75;66.23;100466.63;4619662;30;74754;-87
2022/05/30 03:29:29;;;;;;;;;5.67;5.67;;;;;12.01;66.05;100512.09;4637596;30;44930;-88
2022/05/30 03:40:37;;;;;;;;;6.33;6.33;;;;;11.67;67.96;100468.34;4620492;30;45357;-87
2022/05/30 03:43:44;;;;;;;;;8.00;5.00;;;;;11.60;66.74;100464.78;4572937;31;45472;-86
2022/05/30 03:47:00;;;;;;;;;;;;;;;;;;;;;
2022/05/30 03:57:15;;;;;;;;;9.00;9.00;;;;;11.62;67.10;100483.44;4574478;31;45423;-87
2022/05/30 04:14:06;;;;;;;;;9.00;6.00;;;;;11.82;68.18;100531.50;4643526;30;45511;-87
2022/05/30 04:20:49;;;;;;;;;9.00;9.00;;;;;11.56;68.09;100531.34;4623784;30;45337;-86
2022/05/30 04:23:49;;;;;;;;;15.00;10.33;;;;;11.53;67.98;100528.66;4589373;31;44912;-86
2022/05/30 04:27:29;;;;;;;;;6.33;6.33;;;;;11.55;68.59;100527.81;4536801;30;45643;-86
2022/05/30 04:34:14;;;;;;;;;;;;;;;;;;;;;
2022/05/30 04:37:39;;;;;;;;;11.00;9.67;;;;;11.78;68.20;100543.91;4580811;31;71817;-86
2022/05/30 04:48:20;;;;;;;;;9.00;9.00;;;;;11.68;67.68;100501.25;4613073;30;45722;-87
2022/05/30 04:51:31;;;;;;;;;10.67;8.67;;;;;12.16;67.28;100540.59;4589259;30;45468;-87
2022/05/30 06:23:16;;;;;;;;;;;;;;;;;;;;;
2022/05/30 06:26:58;;;;;;;;;;;;;;;;;;;;;
2022/05/30 06:33:42;;;;;;;;;;;;;;;;;;;;;
2022/05/30 09:35:03;;;;;;;;;1.00;1.00;;;;;17.42;40.80;100530.19;4207928;23;46532;-86
2022/05/30 09:37:53;;;;;;;;;2.00;2.00;;;;;17.29;40.79;100500.81;4878998;29;45519;-86
2022/05/30 09:40:21;;;;;;;;;1.00;1.00;;;;;17.51;41.26;100517.47;4863863;29;45345;-85
2022/05/30 09:42:57;;;;;;;;;3.00;3.00;;;;;17.50;41.65;100494.16;4864213;29;45386;-85
2022/05/30 09:52:44;;;;;;;;;2.00;2.00;;;;;17.92;40.96;100482.66;4767779;29;45097;-85
2022/05/30 09:56:01;;;;;;;;;2.00;2.00;;;;;18.23;38.95;100508.91;4753776;29;45535;-86
2022/05/30 10:04:02;;;;;;;;;;;;;;;;;;;;;
2022/05/30 10:10:30;;;;;;;;;2.00;2.00;;;;;18.07;38.91;100460.78;5204666;23;45425;-85
2022/05/30 10:13:34;;;;;;;;;2.67;2.67;;;;;18.19;39.01;100487.44;4880160;29;45320;-86
2022/05/30 10:29:48;;;;;;;;;3.00;3.00;;;;;18.91;39.76;100495.72;4752580;29;44989;-87
2022/05/30 10:53:08;;;;;;;;;3.00;2.67;;;;;18.82;38.28;100489.66;4685933;30;45193;-87
2022/05/30 10:59:29;;;;;;;;;3.00;2.00;;;;;19.16;38.11;100500.50;4698007;30;44931;-87
2022/05/30 11:05:44;;;;;;;;;1.33;1.33;;;;;19.44;34.98;100510.59;4694139;30;44919;-87
2022/05/30 11:08:26;;;;;;;;;1.67;1.67;;;;;19.38;36.79;100490.06;4694015;30;45536;-86
2022/05/30 11:11:18;;;;;;;;;2.00;2.00;;;;;19.44;35.96;100500.69;4695380;30;45487;-86
2022/05/30 11:14:13;;;;;;;;;3.00;3.00;;;;;19.36;36.44;100494.59;4682928;30;44814;-86
2022/05/30 11:17:03;;;;;;;;;3.00;3.00;;;;;19.41;35.37;100499.88;4694426;30;45017;-88
2022/05/30 11:19:47;;;;;;;;;1.00;1.00;;;;;19.43;35.44;100492.63;4709161;30;47045;-85
2022/05/30 11:29:43;;;;;;;;;3.00;3.00;;;;;20.05;34.05;100487.31;4715815;30;45375;-86
2022/05/30 11:33:08;;;;;;;;;;;;;;;;;;;;;
2022/05/30 11:36:56;;;;;;;;;1.00;1.00;;;;;20.28;33.66;100442.53;4734754;29;71603;-87
2022/05/30 11:43:17;;;;;;;;;3.00;3.00;;;;;20.69;33.54;100478.22;4811952;29;45432;-88
2022/05/30 11:46:29;;;;;;;;;1.00;1.00;;;;;20.74;33.33;100478.94;4805358;29;45233;-87
2022/05/30 14:26:13;;;;;;;;;3.00;3.00;;;;;35.42;21.57;100366.69;5506363;23;47035;-86
2022/05/30 14:29:35;;;;;;;;;2.00;1.33;;;;;36.72;19.86;100372.28;4846776;29;46160;-87
2022/05/30 15:12:18;;;;;;;;;1.00;1.00;;;;;44.75;12.77;100373.28;4920552;23;46215;-88
2022/05/30 15:14:47;;;;;;;;;3.33;2.00;;;;;42.14;13.11;100332.97;4858021;29;44872;-87
2022/05/30 15:17:39;;;;;;;;;2.00;2.00;;;;;39.17;14.13;100374.78;4858819;29;45703;-88
2022/05/30 15:20:25;;;;;;;;;;;;;;;;;;;;;
2022/05/30 15:25:46;;;;;;;;;1.00;1.00;;;;;32.25;17.21;100342.56;1237617;27;45984;-87
2022/05/30 15:31:51;;;;;;;;;1.00;1.00;;;;;33.53;15.65;100334.38;4999207;23;46309;-87
2022/05/30 15:35:04;;;;;;;;;2.00;2.00;;;;;35.71;14.20;100376.84;4823580;29;45339;-87
2022/05/30 15:37:41;;;;;;;;;3.00;3.00;;;;;36.75;15.29;100374.75;4813094;29;45537;-88
2022/05/30 15:40:23;;;;;;;;;3.67;2.67;;;;;36.62;13.57;100335.44;4830704;29;44978;-86
2022/05/30 15:42:59;;;;;;;;;2.33;2.33;;;;;38.14;13.52;100349.16;4841440;29;46103;-87
2022/05/30 15:45:38;;;;;;;;;1.33;1.33;;;;;36.05;13.98;100368.84;4832164;29;44946;-87
2022/05/30 15:50:46;;;;;;;;;1.67;1.67;;;;;31.50;16.06;100377.03;4933050;23;45482;-87
2022/05/30 15:59:29;;;;;;;;;4.00;4.00;;;;;32.79;16.29;100319.66;4844529;29;44980;-87
2022/05/30 16:02:00;;;;;;;;;3.67;2.00;;;;;35.35;15.80;100340.63;4848746;29;44854;-87
2022/05/30 16:12:25;;;;;;;;;4.67;3.33;;;;;37.10;13.31;100344.41;4874322;29;46275;-88
2022/05/30 16:14:51;;;;;;;;;3.00;3.00;;;;;35.30;14.58;100310.69;4876413;29;45500;-87
2022/05/30 16:18:05;;;;;;;;;1.00;0.00;;;;;35.18;14.09;100345.03;4875564;29;45523;-87
2022/05/30 16:20:34;;;;;;;;;1.00;1.00;;;;;34.36;14.81;100336.09;4875943;29;45524;-88
2022/05/30 16:23:06;;;;;;;;;3.00;3.00;;;;;34.95;15.20;100303.00;4860428;29;44898;-87
2022/05/30 16:25:37;;;;;;;;;1.67;1.67;;;;;35.39;15.14;100331.03;4860734;29;47040;-87
2022/05/30 16:28:06;;;;;;;;;1.67;1.67;;;;;34.33;14.51;100303.25;4877040;29;45393;-87
2022/05/30 16:30:32;;;;;;;;;1.33;1.33;;;;;33.01;15.22;100331.56;4860109;29;45819;-86
2022/05/30 16:39:19;;;;;;;;;3.67;3.33;;;;;29.18;18.36;100329.28;4856347;29;45438;-87
2022/05/30 16:41:52;;;;;;;;;1.33;1.33;;;;;27.99;19.52;100300.81;4857867;29;45453;-88
2022/05/30 16:44:21;;;;;;;;;3.00;2.00;;;;;27.69;20.14;100345.53;4857922;29;45708;-87
2022/05/30 16:46:56;;;;;;;;;2.33;2.33;;;;;26.68;20.48;100291.69;4857680;29;45566;-87
2022/05/30 16:52:14;;;;;;;;;1.67;1.67;;;;;28.36;19.91;100335.78;4839627;29;45469;-87
2022/05/30 16:54:40;;;;;;;;;1.00;1.00;;;;;27.65;19.87;100338.53;4807649;29;44860;-86
2022/05/30 16:57:06;;;;;;;;;2.00;1.00;;;;;26.70;20.61;100333.41;4820793;29;45445;-88
2022/05/30 16:59:43;;;;;;;;;3.33;3.33;;;;;26.01;21.38;100335.53;4803556;29;45432;-87
2022/05/30 17:02:09;;;;;;;;;2.00;2.00;;;;;25.53;22.06;100307.31;4802609;29;45385;-86
2022/05/30 17:05:21;;;;;;;;;2.00;2.00;;;;;25.27;22.55;100344.13;4801561;29;45467;-86
2022/05/30 17:07:50;;;;;;;;;3.00;3.00;;;;;24.59;23.29;100357.63;4803410;29;47366;-86
2022/05/30 17:10:20;;;;;;;;;2.33;1.67;;;;;24.11;23.45;100352.63;4817439;29;45492;-86
2022/05/30 17:12:45;;;;;;;;;4.00;2.00;;;;;23.72;24.01;100348.13;4803145;29;44771;-86
2022/05/30 17:15:29;;;;;;;;;2.67;2.67;;;;;23.54;23.78;100351.69;4817032;29;44962;-87
2022/05/30 17:18:00;;;;;;;;;2.67;2.67;;;;;23.38;24.35;100346.09;4801982;29;45617;-86
2022/05/30 17:20:39;;;;;;;;;2.00;2.00;;;;;23.43;24.62;100364.88;4789260;29;44909;-89
2022/05/30 17:23:07;;;;;;;;;2.67;2.67;;;;;23.38;24.96;100364.22;4818896;29;44859;-88
2022/05/30 17:25:40;;;;;;;;;2.00;2.00;;;;;23.06;24.71;100310.44;4803312;29;45619;-88
2022/05/30 17:30:56;;;;;;;;;2.00;2.00;;;;;22.59;25.77;100324.19;4819184;29;44847;-88
2022/05/30 17:33:22;;;;;;;;;3.00;3.00;;;;;22.57;25.58;100359.50;4834660;29;45332;-88
2022/05/30 17:35:49;;;;;;;;;3.00;3.00;;;;;22.31;26.46;100346.13;4834801;29;45545;-89
2022/05/30 17:38:16;;;;;;;;;2.00;2.00;;;;;22.02;26.38;100318.38;4818980;29;47294;-88
2022/05/30 17:40:41;;;;;;;;;3.67;3.00;;;;;22.22;27.00;100354.59;4820110;29;45190;-88
2022/05/30 17:43:09;;;;;;;;;2.00;2.00;;;;;22.23;26.48;100361.78;4834176;29;45476;-87
2022/05/30 17:46:11;;;;;;;;;3.00;3.00;;;;;22.34;26.38;100357.75;4834380;29;45343;-89
2022/05/30 17:49:02;;;;;;;;;4.00;4.00;;;;;22.32;26.37;100365.06;4821872;29;45617;-87
2022/05/30 17:51:54;;;;;;;;;3.00;3.00;;;;;22.16;26.54;100370.16;4822086;29;45346;-88
2022/05/30 17:55:23;;;;;;;;;3.33;3.33;;;;;21.85;26.44;100326.28;4836596;29;45502;-88
2022/05/30 17:57:50;;;;;;;;;2.00;2.00;;;;;22.00;26.57;100358.19;4836823;29;45650;-88
2022/05/30 18:00:18;;;;;;;;;4.00;3.00;;;;;21.97;26.25;100352.88;4836735;29;46791;-88
2022/05/30 18:02:44;;;;;;;;;2.00;2.00;;;;;21.95;26.94;100365.59;4837044;29;44935;-88
2022/05/30 18:05:12;;;;;;;;;2.00;2.00;;;;;21.87;27.38;100373.13;4836032;29;45556;-89
2022/05/30 18:07:59;;;;;;;;;2.00;2.00;;;;;21.86;27.12;100374.97;4837183;29;45635;-88
2022/05/30 18:10:46;;;;;;;;;4.00;3.67;;;;;21.77;27.59;100354.56;4836451;29;45564;-88
2022/05/30 18:13:50;;;;;;;;;2.00;2.00;;;;;21.70;28.06;100371.94;4820928;29;45572;-87
2022/05/30 18:16:47;;;;;;;;;4.00;3.33;;;;;21.66;28.00;100381.13;4807436;29;45256;-88
2022/05/30 18:19:36;;;;;;;;;2.67;2.67;;;;;21.43;28.38;100351.31;4821115;29;44976;-88
2022/05/30 18:22:04;;;;;;;;;2.33;2.33;;;;;21.30;28.46;100373.38;4837389;29;45290;-88
2022/05/30 18:24:59;;;;;;;;;3.00;3.00;;;;;21.16;29.16;100383.81;4820318;29;45344;-87
2022/05/30 18:27:26;;;;;;;;;4.00;4.00;;;;;20.95;28.82;100382.75;4835266;29;45343;-87
2022/05/30 18:29:52;;;;;;;;;2.00;2.00;;;;;20.71;29.12;100373.66;4834820;29;45434;-88
2022/05/30 18:32:33;;;;;;;;;3.00;2.00;;;;;20.74;29.23;100378.97;4832273;29;47356;-87
2022/05/30 18:35:29;;;;;;;;;4.67;4.00;;;;;20.68;29.28;100376.47;4833404;29;45417;-88
2022/05/30 18:38:08;;;;;;;;;0.00;0.00;;;;;20.59;29.76;100391.16;4816181;29;45419;-88
2022/05/30 18:40:42;;;;;;;;;2.67;2.67;;;;;20.51;29.59;100388.69;4820251;29;45760;-89
2022/05/30 18:43:19;;;;;;;;;1.67;1.67;;;;;20.47;29.84;100387.00;4817897;29;46745;-88
2022/05/30 18:45:54;;;;;;;;;3.00;2.00;;;;;20.42;29.64;100389.00;4833642;29;45610;-89
2022/05/30 18:48:26;;;;;;;;;4.00;2.33;;;;;20.39;30.28;100391.78;4834429;29;44861;-87
2022/05/30 18:50:54;;;;;;;;;3.00;3.00;;;;;20.03;30.15;100339.84;4819242;29;45006;-88
2022/05/30 18:53:20;;;;;;;;;3.00;3.00;;;;;20.22;30.29;100388.72;4833552;29;46583;-88
2022/05/30 18:55:59;;;;;;;;;4.33;3.00;;;;;20.12;30.55;100370.13;4818818;29;44831;-89
2022/05/30 18:58:32;;;;;;;;;3.00;3.00;;;;;20.14;30.39;100384.47;4833512;29;45713;-88
2022/05/30 19:01:02;;;;;;;;;1.67;1.67;;;;;20.18;30.63;100394.25;4819153;29;45453;-86
2022/05/30 19:03:32;;;;;;;;;3.67;2.67;;;;;20.18;30.39;100388.84;4818982;29;45831;-88
2022/05/30 19:06:01;;;;;;;;;3.00;3.00;;;;;20.08;30.68;100384.66;4834516;29;45363;-87
2022/05/30 19:08:33;;;;;;;;;4.00;3.67;;;;;19.87;31.20;100369.09;4820243;29;44787;-87
2022/05/30 19:11:16;;;;;;;;;3.67;3.67;;;;;19.93;31.07;100386.00;4844193;29;44814;-88
2022/05/30 19:14:16;;;;;;;;;4.00;2.00;;;;;19.86;31.06;100388.94;4855959;29;47219;-87
2022/05/30 19:19:36;;;;;;;;;2.00;2.00;;;;;19.77;31.15;100391.00;4823703;29;45317;-88
2022/05/30 19:22:01;;;;;;;;;1.67;1.00;;;;;19.69;31.57;100390.28;4823456;29;44739;-88
2022/05/30 19:24:28;;;;;;;;;3.00;3.00;;;;;19.53;31.54;100372.75;4837202;29;45602;-89
2022/05/30 19:26:56;;;;;;;;;3.33;2.33;;;;;19.27;31.65;100342.03;4837241;29;44807;-87
2022/05/30 19:29:24;;;;;;;;;2.67;2.00;;;;;19.45;31.71;100380.19;4821911;29;44767;-87
2022/05/30 19:31:52;;;;;;;;;3.33;3.33;;;;;19.48;32.59;100393.59;4823105;29;44789;-88
2022/05/30 19:34:18;;;;;;;;;3.00;2.00;;;;;19.16;32.27;100368.41;4836602;29;47281;-88
2022/05/30 19:40:07;;;;;;;;;3.00;3.00;;;;;19.13;33.00;100411.63;4821995;29;45440;-88
2022/05/30 19:42:36;;;;;;;;;3.00;3.00;;;;;18.82;33.39;100372.00;4836590;29;45870;-88
2022/05/30 19:45:05;;;;;;;;;3.00;3.00;;;;;18.68;33.20;100352.56;4836720;29;45781;-89
2022/05/30 19:47:31;;;;;;;;;4.00;3.00;;;;;18.92;33.25;100416.63;4837077;29;45370;-88
2022/05/30 19:49:57;;;;;;;;;0.33;0.33;;;;;18.76;34.16;100391.88;4821686;29;45504;-87
2022/05/30 19:55:45;;;;;;;;;3.00;2.67;;;;;18.44;34.36;100381.91;4822788;29;45390;-88
2022/05/30 19:58:15;;;;;;;;;3.33;3.00;;;;;18.32;34.11;100363.31;4820929;29;45371;-87
2022/05/30 20:00:42;;;;;;;;;5.33;3.00;;;;;18.56;34.71;100415.72;4836280;29;45386;-87
2022/05/30 20:03:08;;;;;;;;;3.00;3.00;;;;;18.19;35.51;100382.47;4836981;29;44802;-87
2022/05/30 20:05:46;;;;;;;;;1.33;1.33;;;;;18.39;35.24;100427.75;4821614;29;45478;-87
2022/05/30 20:08:11;;;;;;;;;4.00;4.00;;;;;18.09;35.71;100386.28;4820908;29;44761;-88
2022/05/30 20:10:43;;;;;;;;;3.00;3.00;;;;;18.23;35.75;100426.34;4822507;29;45503;-88
2022/05/30 20:16:34;;;;;;;;;2.67;2.67;;;;;18.13;35.67;100440.94;4839003;29;45558;-88
2022/05/30 20:19:00;;;;;;;;;3.00;3.00;;;;;17.93;36.37;100426.09;4823230;29;45759;-88
2022/05/30 20:21:26;;;;;;;;;2.00;2.00;;;;;18.00;35.46;100445.72;4823070;29;45299;-88
2022/05/30 20:23:51;;;;;;;;;5.67;4.00;;;;;17.91;36.13;100436.00;4837993;29;45580;-87
2022/05/30 20:29:39;;;;;;;;;3.00;3.00;;;;;17.89;36.28;100447.72;4839068;29;45385;-88
2022/05/30 20:32:06;;;;;;;;;5.67;5.00;;;;;17.87;36.30;100454.94;4821110;29;45378;-88
2022/05/30 20:34:32;;;;;;;;;3.00;3.00;;;;;17.83;36.14;100454.09;4837673;29;45548;-88
2022/05/30 20:36:58;;;;;;;;;3.00;3.00;;;;;17.77;36.67;100452.41;4821883;29;48102;-88
2022/05/30 20:39:24;;;;;;;;;3.67;3.67;;;;;17.74;36.16;100455.16;4822785;29;44802;-89
2022/05/30 20:44:37;;;;;;;;;3.33;3.33;;;;;17.73;37.09;100456.09;4838833;29;44881;-88
2022/05/30 20:47:07;;;;;;;;;2.00;2.00;;;;;17.67;37.50;100464.25;4821713;29;47020;-88
2022/05/30 20:49:32;;;;;;;;;5.00;5.00;;;;;17.48;38.01;100439.53;4838597;29;45274;-88
2022/05/30 20:51:58;;;;;;;;;5.00;4.00;;;;;17.56;37.24;100459.09;4837306;29;45379;-88
2022/05/30 20:54:25;;;;;;;;;3.00;3.00;;;;;17.54;38.29;100460.91;4837685;29;45433;-88
2022/05/30 20:56:51;;;;;;;;;3.00;3.00;;;;;17.42;37.34;100450.41;4837579;29;45407;-89
2022/05/30 20:59:17;;;;;;;;;4.00;4.00;;;;;17.42;37.33;100454.91;4821667;29;45928;-87
2022/05/30 21:01:42;;;;;;;;;3.00;3.00;;;;;17.45;37.57;100455.75;4837940;29;45331;-88
2022/05/30 21:04:08;;;;;;;;;4.00;4.00;;;;;17.45;37.43;100457.50;4840249;29;45293;-88
2022/05/30 21:06:34;;;;;;;;;3.00;3.00;;;;;17.40;37.53;100450.44;4823008;29;47078;-86
2022/05/30 21:09:05;;;;;;;;;6.00;4.33;;;;;17.44;37.67;100456.63;4839660;29;45397;-88
2022/05/30 21:11:31;;;;;;;;;4.00;4.00;;;;;17.30;38.19;100437.19;4839453;29;44818;-87
2022/05/30 21:14:04;;;;;;;;;4.00;4.00;;;;;17.39;38.14;100459.41;4841133;29;45374;-88
2022/05/30 21:16:38;;;;;;;;;4.33;4.33;;;;;17.39;38.77;100462.13;4838572;29;47881;-87
2022/05/30 21:19:15;;;;;;;;;2.33;2.33;;;;;17.26;39.18;100440.84;4837824;29;45477;-88
2022/05/30 21:21:49;;;;;;;;;4.00;3.33;;;;;17.19;38.91;100432.91;4822295;29;45460;-88
2022/05/30 21:24:15;;;;;;;;;4.00;4.00;;;;;17.19;39.36;100450.84;4837494;29;45573;-87
2022/05/30 21:26:41;;;;;;;;;4.00;3.00;;;;;17.20;39.62;100452.59;4821671;29;46717;-87
2022/05/30 21:29:07;;;;;;;;;2.67;2.67;;;;;17.22;39.05;100450.75;4836913;29;44811;-88
2022/05/30 21:31:37;;;;;;;;;2.00;2.00;;;;;17.17;38.58;100441.91;4836024;29;45506;-88
2022/05/30 21:34:11;;;;;;;;;4.33;3.00;;;;;17.24;38.78;100454.31;4821023;29;44910;-88
2022/05/30 21:36:48;;;;;;;;;3.00;3.00;;;;;17.23;39.12;100463.31;4821490;29;46729;-88
2022/05/30 21:39:14;;;;;;;;;4.00;3.00;;;;;17.17;38.79;100453.53;4822000;29;45501;-88
2022/05/30 21:41:41;;;;;;;;;5.00;3.00;;;;;17.09;39.06;100442.03;4837378;29;45489;-88
2022/05/30 21:44:09;;;;;;;;;2.00;2.00;;;;;16.94;39.53;100413.63;4823751;29;45360;-88
2022/05/30 21:46:49;;;;;;;;;3.00;3.00;;;;;16.96;39.31;100425.22;4823266;29;47029;-89
2022/05/30 21:49:14;;;;;;;;;5.00;5.00;;;;;16.81;39.31;100412.09;4839606;29;45401;-88
2022/05/30 21:51:46;;;;;;;;;3.00;3.00;;;;;16.82;39.83;100410.28;4838872;29;45246;-88
2022/05/30 21:57:50;;;;;;;;;4.00;4.00;;;;;16.94;39.93;100451.22;4839638;29;45293;-88
2022/05/30 22:00:22;;;;;;;;;3.00;3.00;;;;;17.07;39.92;100475.25;4839486;29;45353;-89
2022/05/30 22:02:48;;;;;;;;;4.33;4.33;;;;;16.89;39.48;100446.88;4840045;29;45372;-89
2022/05/30 22:05:14;;;;;;;;;4.00;4.00;;;;;17.08;39.66;100479.69;4821370;29;45605;-88
2022/05/30 22:07:39;;;;;;;;;5.33;5.00;;;;;16.94;39.45;100437.81;4822918;29;47010;-88
2022/05/30 22:10:06;;;;;;;;;7.00;6.00;;;;;16.87;39.46;100428.09;4838996;29;45375;-87
2022/05/30 22:12:32;;;;;;;;;4.67;4.67;;;;;16.95;39.77;100426.16;4833587;29;45379;-88
2022/05/30 22:14:58;;;;;;;;;4.33;4.33;;;;;16.99;39.73;100433.25;4819121;29;45744;-88
2022/05/30 22:17:24;;;;;;;;;5.00;5.00;;;;;17.10;40.12;100448.31;4833300;29;47705;-88
2022/05/30 22:19:51;;;;;;;;;4.00;4.00;;;;;17.09;39.81;100450.09;4819656;29;45336;-88
2022/05/30 22:22:16;;;;;;;;;6.00;4.33;;;;;16.96;39.99;100427.03;4819776;29;45482;-88
2022/05/30 22:24:42;;;;;;;;;7.00;6.67;;;;;17.13;39.97;100448.25;4819661;29;45441;-88
2022/05/30 22:27:10;;;;;;;;;4.00;4.00;;;;;17.14;39.80;100441.97;4835391;29;47226;-89
2022/05/30 22:29:37;;;;;;;;;3.33;3.00;;;;;17.10;39.96;100440.25;4835111;29;45417;-88
2022/05/30 22:32:03;;;;;;;;;5.00;5.00;;;;;17.24;39.92;100453.44;4821314;29;45413;-87
2022/05/30 22:34:29;;;;;;;;;6.00;4.00;;;;;17.26;40.32;100456.97;4818889;29;45242;-87
2022/05/30 22:36:54;;;;;;;;;6.00;4.67;;;;;17.18;39.81;100443.69;4833020;29;46743;-87
2022/05/30 22:39:22;;;;;;;;;4.00;4.00;;;;;17.16;39.89;100434.75;4818501;29;45361;-87
2022/05/30 22:41:53;;;;;;;;;5.00;5.00;;;;;17.25;39.34;100448.03;4819953;29;45916;-87
2022/05/30 22:44:19;;;;;;;;;5.00;5.00;;;;;17.26;39.45;100443.53;4833345;29;45700;-88
2022/05/30 22:46:47;;;;;;;;;3.00;3.00;;;;;17.14;39.77;100410.59;4819546;29;46290;-88
2022/05/30 22:49:13;;;;;;;;;4.00;4.00;;;;;17.16;39.46;100411.44;4833309;29;45403;-87
2022/05/30 22:51:45;;;;;;;;;4.00;3.00;;;;;17.10;39.60;100399.94;4833241;29;45505;-88
2022/05/30 22:54:10;;;;;;;;;3.67;3.00;;;;;17.39;39.19;100448.66;4832998;29;45424;-88
2022/05/30 22:56:36;;;;;;;;;3.00;3.00;;;;;17.32;39.37;100435.38;4818995;29;45342;-88
2022/05/30 22:59:06;;;;;;;;;3.00;3.00;;;;;17.21;39.48;100416.75;4832720;29;45320;-88
2022/05/30 23:01:32;;;;;;;;;3.67;2.67;;;;;17.34;39.65;100455.03;4832788;29;45912;-87
2022/05/30 23:04:00;;;;;;;;;3.00;3.00;;;;;17.24;39.50;100438.19;4833292;29;45614;-87
2022/05/30 23:06:25;;;;;;;;;4.00;3.00;;;;;17.06;39.21;100407.16;4818416;29;45276;-87
2022/05/30 23:08:51;;;;;;;;;3.00;3.00;;;;;17.22;39.13;100434.63;4816960;29;45809;-88
2022/05/30 23:11:25;;;;;;;;;3.33;3.33;;;;;17.33;39.48;100454.16;4817236;29;45441;-87
2022/05/30 23:13:58;;;;;;;;;3.33;3.00;;;;;17.16;39.38;100418.63;4823200;29;45499;-88
2022/05/30 23:16:54;;;;;;;;;3.00;3.00;;;;;17.11;39.27;100401.72;4836233;29;45460;-88
2022/05/30 23:19:34;;;;;;;;;3.00;3.00;;;;;17.20;39.32;100425.72;4834105;29;45442;-88
2022/05/30 23:22:01;;;;;;;;;4.00;4.00;;;;;17.15;39.35;100422.25;4836557;29;45434;-87
2022/05/30 23:24:29;;;;;;;;;3.00;3.00;;;;;17.15;39.58;100417.75;4850449;29;45377;-87
2022/05/30 23:26:55;;;;;;;;;2.67;2.67;;;;;17.22;39.47;100436.44;4850464;29;48423;-87
2022/05/30 23:29:24;;;;;;;;;2.00;2.00;;;;;17.16;39.73;100414.13;4850490;29;45646;-89
2022/05/30 23:31:50;;;;;;;;;4.00;4.00;;;;;17.03;39.49;100401.84;4852178;29;45417;-88
2022/05/30 23:34:16;;;;;;;;;2.33;2.33;;;;;16.99;39.58;100400.13;4838924;29;45845;-87
2022/05/30 23:37:19;;;;;;;;;2.67;2.67;;;;;17.22;39.71;100423.88;4839205;29;45842;-87
2022/05/30 23:39:44;;;;;;;;;4.00;3.00;;;;;17.17;39.41;100423.97;4852413;29;45534;-87
2022/05/30 23:45:04;;;;;;;;;3.00;3.00;;;;;17.12;39.78;100428.53;4837743;29;45333;-88
2022/05/30 23:47:30;;;;;;;;;4.00;3.00;;;;;17.02;39.61;100409.94;4850423;29;47947;-88
2022/05/30 23:49:57;;;;;;;;;6.00;3.00;;;;;17.10;39.60;100425.00;4836664;29;44866;-88
2022/05/30 23:52:26;;;;;;;;;4.00;4.00;;;;;17.14;39.59;100426.72;4849910;29;45426;-88
2022/05/30 23:54:53;;;;;;;;;2.00;2.00;;;;;17.10;39.70;100421.44;4850419;29;45979;-87
2022/05/30 23:57:19;;;;;;;;;5.00;3.00;;;;;17.12;39.22;100420.47;4852552;29;45441;-88
2022/05/30 23:59:50;;;;;;;;;3.67;3.67;;;;;17.11;39.64;100425.91;4838129;29;44940;-88
